Terminal Aerodrome Forecast
Issued by NWS

Home | Current Version | Previous Version | Text Only | Print | Product List | Glossary On
Versions: 1 2 3 4 5 6 7 8 9 10 11 12 13 14 15 16 17 18 19 20 21 22 23 24 25 26 27 28 29 30 31 32 33 34 35 36 37 38 39 40 41 42 43 44 45 46 47 48 49
000
FTUS44 KHGX 040307 AAB
TAFSGR
TAF AMD
KSGR 040307Z 0403/0424 16007KT P6SM BKN015 OVC030
     FM040500 15009KT 6SM BR OVC009
     FM040800 15006KT 2SM BR BKN004 OVC008
     FM041700 16006KT 6SM BR VCSH OVC007=

USA.gov is the U.S. government's official web portal to all federal, state and local government web resources and services.